createdAt,value
2017-05-13T00:00:51.233Z,95.40
2017-05-13T00:03:20.278Z,95.70
2017-05-13T00:05:49.332Z,95.50
2017-05-13T00:08:19.098Z,95.80
2017-05-13T00:10:48.142Z,95.90
2017-05-13T00:13:17.921Z,95.80
2017-05-13T00:15:46.990Z,96.10
2017-05-13T00:18:16.021Z,96.00
2017-05-13T00:20:45.067Z,96.30
2017-05-13T00:23:14.129Z,96.90
2017-05-13T00:25:43.892Z,96.60
2017-05-13T00:28:12.969Z,96.90
2017-05-13T00:30:42.922Z,97.10
2017-05-13T00:33:11.982Z,97.30
2017-05-13T00:35:41.022Z,97.50
2017-05-13T00:38:10.829Z,97.50
2017-05-13T00:40:39.947Z,97.60
2017-05-13T00:43:09.737Z,97.80
2017-05-13T00:45:38.784Z,97.60
2017-05-13T00:48:15.665Z,97.60
2017-05-13T00:50:53.114Z,97.60
2017-05-13T00:53:24.876Z,97.70
2017-05-13T00:55:53.158Z,97.70
2017-05-13T00:58:22.223Z,97.60
2017-05-13T01:00:51.259Z,98.10
2017-05-13T01:03:20.339Z,98.00
2017-05-13T01:05:50.132Z,97.90
2017-05-13T01:08:19.934Z,97.90
2017-05-13T01:10:48.986Z,98.30
2017-05-13T01:13:18.049Z,98.40
2017-05-13T01:15:47.825Z,98.60
2017-05-13T01:18:16.906Z,98.20
2017-05-13T01:20:45.944Z,98.20
2017-05-13T01:23:15.753Z,98.30
2017-05-13T01:25:45.541Z,98.20
2017-05-13T01:28:14.605Z,98.20
2017-05-13T01:30:43.662Z,98.20
2017-05-13T01:33:12.702Z,97.90
2017-05-13T01:35:41.774Z,98.20
2017-05-13T01:38:10.811Z,98.20
2017-05-13T01:40:39.952Z,98.30
2017-05-13T01:43:09.716Z,98.50
2017-05-13T01:45:38.787Z,98.30
2017-05-13T01:48:07.831Z,98.50
2017-05-13T01:50:37.634Z,98.30
2017-05-13T01:53:07.447Z,98.20
2017-05-13T01:55:37.251Z,98.20
2017-05-13T01:58:06.281Z,98.30
2017-05-13T02:00:35.373Z,98.00
2017-05-13T02:03:04.454Z,97.80
2017-05-13T02:05:33.489Z,98.20
2017-05-13T02:08:02.557Z,98.20
2017-05-13T02:10:31.614Z,98.40
2017-05-13T02:13:00.682Z,98.20
2017-05-13T02:15:29.717Z,98.20
2017-05-13T02:17:59.505Z,98.20
2017-05-13T02:20:28.575Z,98.10
2017-05-13T02:22:57.657Z,97.50
2017-05-13T02:25:26.718Z,96.90
2017-05-13T02:27:56.514Z,96.20
2017-05-13T02:30:25.537Z,95.40
2017-05-13T02:32:54.597Z,95.10
2017-05-13T02:35:23.632Z,94.80
2017-05-13T02:37:52.675Z,94.40
2017-05-13T02:40:21.715Z,94.20
2017-05-13T02:42:50.765Z,93.70
2017-05-13T02:45:19.801Z,93.20
2017-05-13T02:47:48.991Z,93.10
2017-05-13T02:50:18.067Z,92.70
2017-05-13T02:52:47.852Z,92.60
2017-05-13T02:55:16.897Z,92.60
2017-05-13T02:57:45.931Z,92.90
2017-05-13T03:00:14.984Z,93.00
2017-05-13T03:02:44.024Z,92.60
2017-05-13T03:05:13.152Z,92.60
2017-05-13T03:07:42.924Z,92.50
2017-05-13T03:10:11.985Z,92.60
2017-05-13T03:12:41.034Z,92.50
2017-05-13T03:15:10.091Z,92.70
2017-05-13T03:17:39.123Z,92.30
2017-05-13T03:20:08.216Z,92.50
2017-05-13T03:22:37.222Z,92.60
2017-05-13T03:25:06.273Z,93.30
2017-05-13T03:27:35.339Z,93.70
2017-05-13T03:30:05.121Z,93.40
2017-05-13T03:32:34.175Z,93.50
2017-05-13T03:35:03.221Z,93.70
2017-05-13T03:37:33.014Z,93.70
2017-05-13T03:40:02.074Z,93.40
2017-05-13T03:42:31.224Z,93.60
2017-05-13T03:45:00.229Z,93.60
2017-05-13T03:47:29.285Z,93.60
2017-05-13T03:49:58.335Z,93.90
2017-05-13T03:52:27.382Z,93.90
2017-05-13T03:54:56.405Z,93.90
2017-05-13T03:57:25.460Z,93.90
2017-05-13T03:59:54.498Z,93.90
2017-05-13T04:02:23.552Z,93.80
2017-05-13T04:04:52.576Z,94.10
2017-05-13T04:07:21.626Z,93.80
2017-05-13T04:09:50.747Z,93.70
2017-05-13T04:12:20.542Z,93.50
2017-05-13T04:14:49.571Z,93.20
2017-05-13T04:17:18.629Z,93.30
2017-05-13T04:19:47.660Z,93.20
2017-05-13T04:22:16.707Z,93.00
2017-05-13T04:24:45.737Z,92.90
2017-05-13T04:27:15.509Z,92.60
2017-05-13T04:29:44.561Z,92.60
2017-05-13T04:32:13.605Z,92.30
2017-05-13T04:34:42.653Z,92.50
2017-05-13T04:37:11.682Z,91.90
2017-05-13T04:39:40.821Z,91.80
2017-05-13T04:42:09.858Z,91.50
2017-05-13T04:44:39.010Z,91.70
2017-05-13T04:47:08.025Z,91.50
2017-05-13T04:49:37.070Z,91.10
2017-05-13T04:52:06.110Z,91.00
2017-05-13T04:54:35.157Z,91.20
2017-05-13T04:57:04.191Z,91.00
2017-05-13T04:59:33.249Z,90.90
2017-05-13T05:02:02.353Z,90.60
2017-05-13T05:04:32.155Z,90.60
2017-05-13T05:07:01.191Z,90.70
2017-05-13T05:09:30.226Z,91.10
2017-05-13T05:11:59.275Z,91.10
2017-05-13T05:14:28.325Z,90.70
2017-05-13T05:16:57.389Z,90.70
2017-05-13T05:22:01.764Z,90.90
2017-05-13T05:24:30.880Z,90.90
2017-05-13T05:26:59.889Z,91.20
2017-05-13T05:29:28.954Z,91.00
2017-05-13T05:31:57.984Z,91.00
2017-05-13T05:34:27.042Z,91.00
2017-05-13T05:36:56.099Z,90.90
2017-05-13T05:39:25.137Z,90.90
2017-05-13T05:41:54.978Z,91.00
2017-05-13T05:44:24.734Z,90.90
2017-05-13T05:46:53.794Z,91.30
2017-05-13T05:49:22.820Z,91.20
2017-05-13T05:51:51.890Z,91.30
2017-05-13T05:54:20.943Z,91.30
2017-05-13T05:56:50.735Z,91.30
2017-05-13T05:59:19.763Z,91.50
2017-05-13T06:01:48.831Z,91.70
2017-05-13T06:04:18.633Z,91.80
2017-05-13T06:06:47.695Z,91.70
2017-05-13T06:09:16.735Z,91.60
2017-05-13T06:11:46.523Z,91.60
2017-05-13T06:14:15.566Z,91.70
2017-05-13T06:16:44.609Z,91.40
2017-05-13T06:19:13.674Z,91.00
2017-05-13T06:21:42.722Z,90.60
2017-05-13T06:24:12.514Z,90.20
2017-05-13T06:26:41.574Z,89.40
2017-05-13T06:29:10.606Z,88.60
2017-05-13T06:31:39.673Z,87.00
2017-05-13T06:34:08.817Z,87.10
2017-05-13T06:36:37.916Z,86.60
2017-05-13T06:39:06.945Z,85.80
2017-05-13T06:41:35.978Z,86.40
2017-05-13T06:44:05.030Z,86.30
2017-05-13T06:46:34.057Z,86.20
2017-05-13T06:49:03.102Z,85.90
2017-05-13T06:51:32.157Z,86.00
2017-05-13T06:54:01.222Z,84.60
2017-05-13T06:56:30.245Z,85.20
2017-05-13T06:58:59.302Z,83.60
2017-05-13T07:01:28.334Z,83.80
2017-05-13T07:03:57.398Z,83.30
2017-05-13T07:06:26.407Z,83.10
2017-05-13T07:08:55.461Z,81.40
2017-05-13T07:11:24.495Z,80.40
2017-05-13T07:13:53.547Z,80.60
2017-05-13T07:16:22.584Z,80.80
2017-05-13T07:18:51.635Z,80.40
2017-05-13T07:21:20.669Z,80.30
2017-05-13T07:23:49.755Z,80.10
2017-05-13T07:26:18.801Z,79.90
2017-05-13T07:28:47.835Z,80.20
2017-05-13T07:31:16.872Z,80.40
2017-05-13T07:33:46.649Z,79.80
2017-05-13T07:36:15.704Z,79.70
2017-05-13T07:38:44.733Z,78.80
2017-05-13T07:41:13.780Z,77.20
2017-05-13T07:43:43.566Z,75.70
2017-05-13T07:46:12.617Z,75.80
2017-05-13T07:48:41.663Z,74.40
2017-05-13T07:51:11.442Z,74.00
2017-05-13T07:53:40.481Z,74.00
2017-05-13T07:56:10.274Z,72.80
2017-05-13T07:58:39.380Z,72.30
2017-05-13T08:01:08.409Z,71.80
2017-05-13T08:03:37.438Z,68.10
2017-05-13T08:06:06.505Z,67.10
2017-05-13T08:08:35.541Z,65.70
2017-05-13T08:11:04.592Z,64.80
2017-05-13T08:13:33.615Z,65.70
2017-05-13T08:16:02.663Z,64.90
2017-05-13T08:18:31.699Z,64.70
2017-05-13T08:21:00.747Z,63.00
2017-05-13T08:23:29.814Z,61.50
2017-05-13T08:25:59.583Z,61.10
2017-05-13T08:28:28.646Z,60.00
2017-05-13T08:30:57.678Z,59.80
2017-05-13T08:33:26.734Z,57.90
2017-05-13T08:35:55.775Z,57.60
2017-05-13T08:38:24.826Z,55.00
2017-05-13T08:40:53.856Z,53.40
2017-05-13T08:43:22.993Z,54.80
2017-05-13T08:45:52.765Z,55.50
2017-05-13T08:48:21.874Z,56.70
2017-05-13T08:50:50.906Z,56.50
2017-05-13T08:53:19.949Z,58.00
2017-05-13T08:55:49.080Z,59.90
2017-05-13T08:58:18.174Z,60.50
2017-05-13T09:00:47.191Z,61.40
2017-05-13T09:03:16.225Z,59.70
2017-05-13T09:05:45.253Z,59.00
2017-05-13T09:08:15.033Z,58.60
2017-05-13T09:10:44.080Z,58.30
2017-05-13T09:13:13.157Z,55.80
2017-05-13T09:15:42.925Z,53.30
2017-05-13T09:18:11.959Z,51.20
2017-05-13T09:20:41.745Z,48.40
2017-05-13T09:23:10.781Z,49.50
2017-05-13T09:25:39.825Z,51.60
2017-05-13T09:28:08.957Z,52.90
2017-05-13T09:30:38.018Z,51.30
2017-05-13T09:33:07.078Z,49.20
2017-05-13T09:35:36.099Z,47.40
2017-05-13T09:38:05.134Z,46.60
2017-05-13T09:40:35.042Z,44.10
2017-05-13T09:43:04.070Z,43.10
2017-05-13T09:45:33.117Z,41.40
2017-05-13T09:48:02.157Z,40.20
2017-05-13T09:50:31.212Z,39.50
2017-05-13T09:53:00.245Z,38.40
2017-05-13T09:55:29.296Z,38.00
2017-05-13T09:57:58.337Z,38.40
2017-05-13T10:00:27.376Z,36.60
2017-05-13T10:02:56.421Z,37.20
2017-05-13T10:05:25.583Z,37.50
2017-05-13T10:07:54.680Z,35.10
2017-05-13T10:10:23.705Z,34.00
2017-05-13T10:12:52.745Z,35.50
2017-05-13T10:15:21.791Z,38.00
2017-05-13T10:17:50.847Z,38.40
2017-05-13T10:20:20.666Z,36.40
2017-05-13T10:22:50.450Z,33.70
2017-05-13T10:25:19.501Z,34.40
2017-05-13T10:27:48.526Z,36.20
2017-05-13T10:30:17.576Z,36.00
2017-05-13T10:32:46.614Z,32.70
2017-05-13T10:35:15.644Z,31.40
2017-05-13T10:37:45.445Z,28.80
2017-05-13T10:40:14.475Z,27.50
2017-05-13T10:42:43.529Z,31.00
2017-05-13T10:45:12.565Z,34.90
2017-05-13T10:47:41.613Z,37.50
2017-05-13T10:50:10.668Z,35.90
2017-05-13T10:52:39.710Z,35.40
2017-05-13T10:55:08.753Z,38.40
2017-05-13T10:57:37.832Z,41.80
2017-05-13T11:00:06.869Z,43.00
2017-05-13T11:02:35.992Z,41.80
2017-05-13T11:05:05.770Z,38.40
2017-05-13T11:07:34.889Z,33.60
2017-05-13T11:10:04.001Z,31.40
2017-05-13T11:12:33.066Z,30.00
2017-05-13T11:15:02.094Z,29.70
2017-05-13T11:17:31.883Z,27.60
2017-05-13T11:20:01.661Z,26.40
2017-05-13T11:22:30.738Z,26.30
2017-05-13T11:24:59.747Z,26.30
2017-05-13T11:27:28.793Z,28.00
2017-05-13T11:29:58.563Z,30.70
2017-05-13T11:32:27.626Z,30.40
2017-05-13T11:34:56.666Z,32.70
2017-05-13T11:37:25.787Z,35.40
2017-05-13T11:39:54.802Z,38.70
2017-05-13T11:42:23.847Z,41.80
2017-05-13T11:44:52.970Z,41.70
2017-05-13T11:47:22.769Z,38.30
2017-05-13T11:49:52.563Z,32.50
2017-05-13T11:52:21.605Z,28.50
2017-05-13T11:54:50.649Z,26.80
2017-05-13T11:57:19.678Z,25.30
2017-05-13T11:59:49.471Z,25.60
2017-05-13T12:02:18.500Z,26.20
2017-05-13T12:04:47.558Z,27.10
2017-05-13T12:07:16.586Z,27.00
2017-05-13T12:09:45.635Z,26.90
2017-05-13T12:12:14.674Z,26.20
2017-05-13T12:14:43.750Z,27.70
2017-05-13T12:17:12.759Z,30.50
2017-05-13T12:19:41.817Z,30.70
2017-05-13T12:22:10.844Z,30.30
2017-05-13T12:24:39.885Z,31.60
2017-05-13T12:27:08.969Z,32.50
2017-05-13T12:29:37.998Z,30.00
2017-05-13T12:32:07.039Z,27.40
2017-05-13T12:34:36.082Z,26.90
2017-05-13T12:37:05.125Z,26.30
2017-05-13T12:39:34.203Z,25.20
2017-05-13T12:42:03.958Z,24.60
2017-05-13T12:44:33.000Z,24.20
2017-05-13T12:47:02.780Z,23.90
2017-05-13T12:49:31.840Z,23.10
2017-05-13T12:52:00.891Z,23.50
2017-05-13T12:54:30.825Z,23.70
2017-05-13T12:56:59.877Z,24.40
2017-05-13T12:59:28.935Z,24.80
2017-05-13T13:01:57.987Z,24.90
2017-05-13T13:04:27.770Z,25.10
2017-05-13T13:06:56.829Z,25.50
2017-05-13T13:09:25.853Z,24.40
2017-05-13T13:11:54.913Z,25.10
2017-05-13T13:14:23.950Z,24.70
2017-05-13T13:16:53.001Z,25.20
2017-05-13T13:19:22.057Z,26.30
2017-05-13T13:21:51.845Z,28.00
2017-05-13T13:24:20.882Z,26.40
2017-05-13T13:26:49.956Z,25.20
2017-05-13T13:29:18.989Z,24.70
2017-05-13T13:31:48.056Z,24.60
2017-05-13T13:34:17.820Z,24.80
2017-05-13T13:36:46.854Z,25.20
2017-05-13T13:39:16.653Z,26.70
2017-05-13T13:41:45.693Z,29.40
2017-05-13T13:44:14.787Z,30.90
2017-05-13T13:46:43.821Z,28.40
2017-05-13T13:49:12.883Z,26.90
2017-05-13T13:51:41.922Z,26.20
2017-05-13T13:54:10.977Z,26.30
2017-05-13T13:56:40.033Z,26.40
2017-05-13T13:59:09.102Z,25.80
2017-05-13T14:01:38.129Z,25.10
2017-05-13T14:04:07.187Z,24.80
2017-05-13T14:06:36.201Z,24.30
2017-05-13T14:09:05.993Z,24.20
2017-05-13T14:11:35.022Z,23.90
2017-05-13T14:14:04.063Z,26.10
2017-05-13T14:16:33.196Z,26.80
2017-05-13T14:19:02.977Z,28.90
2017-05-13T14:21:32.035Z,28.30
2017-05-13T14:24:01.092Z,26.60
2017-05-13T14:26:30.878Z,26.00
2017-05-13T14:28:59.901Z,24.40
2017-05-13T14:31:29.726Z,24.60
2017-05-13T14:33:59.510Z,24.40
2017-05-13T14:36:28.566Z,24.00
2017-05-13T14:38:57.596Z,24.60
2017-05-13T14:41:26.721Z,25.80
2017-05-13T14:43:55.753Z,25.20
2017-05-13T14:46:24.837Z,24.30
2017-05-13T14:48:53.886Z,23.10
2017-05-13T14:51:22.945Z,22.10
2017-05-13T14:53:51.990Z,22.30
2017-05-13T14:56:21.049Z,23.00
2017-05-13T14:58:50.081Z,22.30
2017-05-13T15:01:19.106Z,23.40
2017-05-13T15:03:48.158Z,23.80
2017-05-13T15:06:17.910Z,24.40
2017-05-13T15:08:46.962Z,25.10
2017-05-13T15:11:16.730Z,25.60
2017-05-13T15:13:45.782Z,25.90
2017-05-13T15:16:14.808Z,27.40
2017-05-13T15:18:43.857Z,28.80
2017-05-13T15:21:13.629Z,29.90
2017-05-13T15:23:42.674Z,29.20
2017-05-13T15:26:11.701Z,27.40
2017-05-13T15:28:40.738Z,26.40
2017-05-13T15:31:10.513Z,25.80
2017-05-13T15:33:39.558Z,25.50
2017-05-13T15:36:08.586Z,24.90
2017-05-13T15:38:37.638Z,25.80
2017-05-13T15:41:07.414Z,26.40
2017-05-13T15:43:36.534Z,26.70
2017-05-13T15:46:06.303Z,27.30
2017-05-13T15:48:35.374Z,27.80
2017-05-13T15:51:04.540Z,27.40
2017-05-13T15:53:33.581Z,26.00
2017-05-13T15:56:02.622Z,25.30
2017-05-13T15:58:32.415Z,26.10
2017-05-13T16:01:01.468Z,26.40
2017-05-13T16:03:30.501Z,26.60
2017-05-13T16:05:59.624Z,27.20
2017-05-13T16:08:29.396Z,28.00
2017-05-13T16:10:59.222Z,28.30
2017-05-13T16:13:28.250Z,28.10
2017-05-13T16:15:58.129Z,28.90
2017-05-13T16:18:27.156Z,31.00
2017-05-13T16:20:56.940Z,32.20
2017-05-13T16:23:25.965Z,33.00
2017-05-13T16:25:55.017Z,33.70
2017-05-13T16:28:24.056Z,35.00
2017-05-13T16:30:53.110Z,35.90
2017-05-13T16:33:23.324Z,36.10
2017-05-13T16:35:52.685Z,36.40
2017-05-13T16:38:21.723Z,36.40
2017-05-13T16:40:50.789Z,36.90
2017-05-13T16:43:19.825Z,37.90
2017-05-13T16:45:48.893Z,38.30
2017-05-13T16:48:17.996Z,38.70
2017-05-13T16:50:47.819Z,39.10
2017-05-13T16:53:16.907Z,39.40
2017-05-13T16:55:46.257Z,39.20
2017-05-13T16:58:15.394Z,39.50
2017-05-13T17:00:44.543Z,39.90
2017-05-13T17:03:13.700Z,41.00
2017-05-13T17:05:42.777Z,40.80
2017-05-13T17:08:11.896Z,40.90
2017-05-13T17:10:42.417Z,41.40
2017-05-13T17:13:11.495Z,41.80
2017-05-13T17:15:40.838Z,42.20
2017-05-13T17:18:11.030Z,42.20
2017-05-13T17:20:40.102Z,42.20
2017-05-13T17:23:09.228Z,42.30
2017-05-13T17:25:38.298Z,42.20
2017-05-13T17:28:07.389Z,42.80
2017-05-13T17:30:36.414Z,43.10
2017-05-13T17:33:05.488Z,43.40
2017-05-13T17:35:34.537Z,43.60
2017-05-13T17:38:04.481Z,43.60
2017-05-13T17:40:33.505Z,43.90
2017-05-13T17:43:02.579Z,44.10
2017-05-13T17:45:32.073Z,43.80
2017-05-13T17:48:02.038Z,43.50
2017-05-13T17:50:31.234Z,43.40
2017-05-13T17:53:01.181Z,43.60
2017-05-13T17:55:30.283Z,43.60
2017-05-13T17:57:59.346Z,44.00
2017-05-13T18:00:29.423Z,43.90
2017-05-13T18:02:58.558Z,44.60
2017-05-13T18:05:27.683Z,44.70
2017-05-13T18:07:56.725Z,44.80
2017-05-13T18:10:25.766Z,45.10
2017-05-13T18:12:54.809Z,45.30
2017-05-13T18:15:23.884Z,45.50
2017-05-13T18:17:52.928Z,45.90
2017-05-13T18:20:22.739Z,46.20
2017-05-13T18:22:52.594Z,46.30
2017-05-13T18:25:21.627Z,47.10
2017-05-13T18:27:50.794Z,47.50
2017-05-13T18:30:19.893Z,48.00
2017-05-13T18:32:49.242Z,48.50
2017-05-13T18:35:18.317Z,49.00
2017-05-13T18:37:47.346Z,49.50
2017-05-13T18:40:16.430Z,50.10
2017-05-13T18:42:45.517Z,50.50
2017-05-13T18:45:14.748Z,50.80
2017-05-13T18:47:43.791Z,51.20
2017-05-13T18:50:12.858Z,51.30
2017-05-13T18:52:41.959Z,51.50
2017-05-13T18:55:10.999Z,51.60
2017-05-13T18:57:40.790Z,51.90
2017-05-13T19:00:10.049Z,51.70
2017-05-13T19:02:39.201Z,51.90
2017-05-13T19:05:08.209Z,52.30
2017-05-13T19:07:37.264Z,52.90
2017-05-13T19:10:06.360Z,53.50
2017-05-13T19:12:36.305Z,54.50
2017-05-13T19:15:05.498Z,56.00
2017-05-13T19:17:35.272Z,56.80
2017-05-13T19:20:04.330Z,57.30
2017-05-13T19:22:33.366Z,58.40
2017-05-13T19:25:02.397Z,58.90
2017-05-13T19:27:31.451Z,60.10
2017-05-13T19:30:01.437Z,61.60
2017-05-13T19:32:30.497Z,63.50
2017-05-13T19:34:59.674Z,64.00
2017-05-13T19:37:29.461Z,67.20
2017-05-13T19:39:58.509Z,68.20
2017-05-13T19:42:27.570Z,68.80
2017-05-13T19:44:56.621Z,69.80
2017-05-13T19:47:25.653Z,70.30
2017-05-13T19:52:30.061Z,71.00
2017-05-13T19:54:59.178Z,71.60
2017-05-13T19:57:28.213Z,72.20
2017-05-13T19:59:57.274Z,72.50
2017-05-13T20:02:26.345Z,72.90
2017-05-13T20:04:55.401Z,71.80
2017-05-13T20:07:24.430Z,71.90
2017-05-13T20:09:53.475Z,71.40
2017-05-13T20:12:23.258Z,71.10
2017-05-13T20:14:52.321Z,70.50
2017-05-13T20:17:21.446Z,70.60
2017-05-13T20:19:50.473Z,70.80
2017-05-13T20:22:19.529Z,70.70
2017-05-13T20:24:48.565Z,70.50
2017-05-13T20:27:17.651Z,71.30
2017-05-13T20:29:46.680Z,71.30
2017-05-13T20:32:15.739Z,71.90
2017-05-13T20:34:45.546Z,71.80
2017-05-13T20:37:16.398Z,73.20
2017-05-13T20:39:44.365Z,72.20
2017-05-13T20:42:13.435Z,71.90
2017-05-13T20:44:43.233Z,72.20
2017-05-13T20:47:12.287Z,72.40
2017-05-13T20:49:41.343Z,72.60
2017-05-13T20:52:11.127Z,71.90
2017-05-13T20:54:40.154Z,71.50
2017-05-13T20:57:09.216Z,71.40
2017-05-13T20:59:38.382Z,71.70
2017-05-13T21:02:07.440Z,71.40
2017-05-13T21:04:37.215Z,71.90
2017-05-13T21:07:06.259Z,71.20
2017-05-13T21:09:35.493Z,71.90
2017-05-13T21:12:05.364Z,72.60
2017-05-13T21:14:37.073Z,72.40
2017-05-13T21:17:07.720Z,72.30
2017-05-13T21:19:37.007Z,72.10
2017-05-13T21:22:06.097Z,71.80
2017-05-13T21:24:35.472Z,72.00
2017-05-13T21:27:04.566Z,72.40
2017-05-13T21:29:33.792Z,72.40
2017-05-13T21:32:03.706Z,72.00
2017-05-13T21:34:33.825Z,72.40
2017-05-13T21:37:08.575Z,72.70
2017-05-13T21:39:37.725Z,72.90
2017-05-13T21:42:06.900Z,72.80
2017-05-13T21:44:35.990Z,72.10
2017-05-13T21:47:05.038Z,72.40
2017-05-13T21:49:34.113Z,72.90
2017-05-13T21:52:03.167Z,73.80
2017-05-13T21:54:32.241Z,74.30
2017-05-13T21:57:02.789Z,74.20
2017-05-13T21:59:32.256Z,74.50
2017-05-13T22:02:01.291Z,74.30
2017-05-13T22:04:31.622Z,74.30
2017-05-13T22:07:01.420Z,73.90
2017-05-13T22:09:30.634Z,74.60
2017-05-13T22:11:59.839Z,74.40
2017-05-13T22:14:28.919Z,74.30
2017-05-13T22:17:02.365Z,74.20
2017-05-13T22:19:31.609Z,74.00
2017-05-13T22:22:01.523Z,74.70
2017-05-13T22:24:31.406Z,74.30
2017-05-13T22:27:00.500Z,74.10
2017-05-13T22:29:29.682Z,73.90
2017-05-13T22:31:58.831Z,73.80
2017-05-13T22:34:28.894Z,73.70
2017-05-13T22:36:57.998Z,73.20
2017-05-13T22:39:27.238Z,72.80
2017-05-13T22:41:57.042Z,73.90
2017-05-13T22:44:26.834Z,74.10
2017-05-13T22:46:55.928Z,73.70
2017-05-13T22:49:24.982Z,73.50
2017-05-13T22:51:54.038Z,73.80
2017-05-13T22:54:23.890Z,73.30
2017-05-13T22:56:53.012Z,73.40
2017-05-13T22:59:22.036Z,73.70
2017-05-13T23:01:51.832Z,74.50
2017-05-13T23:04:20.918Z,74.70
2017-05-13T23:06:50.023Z,75.60
2017-05-13T23:09:19.958Z,75.80
2017-05-13T23:11:49.749Z,76.00
2017-05-13T23:14:19.542Z,77.20
2017-05-13T23:16:48.626Z,76.10
2017-05-13T23:19:19.000Z,76.80
2017-05-13T23:21:48.295Z,77.10
2017-05-13T23:24:17.397Z,77.00
2017-05-13T23:26:47.180Z,77.10
2017-05-13T23:29:16.303Z,77.00
2017-05-13T23:31:46.077Z,76.50
2017-05-13T23:34:15.212Z,76.00
2017-05-13T23:36:45.019Z,76.00
2017-05-13T23:39:14.870Z,76.10
2017-05-13T23:41:43.921Z,75.90
2017-05-13T23:44:13.720Z,74.10
2017-05-13T23:46:42.780Z,74.60
2017-05-13T23:49:11.814Z,75.60
2017-05-13T23:51:41.613Z,76.20
2017-05-13T23:54:11.430Z,75.80
2017-05-13T23:56:41.235Z,75.20
2017-05-13T23:59:10.286Z,75.20
